sensor_id;sensor_type;location;lat;lon;timestamp;temperature;humidity
8979;DHT22;4524;51.364;5.448;2023-04-29T00:00:57;11.60;99.90
8979;DHT22;4524;51.364;5.448;2023-04-29T00:03:25;11.40;99.90
8979;DHT22;4524;51.364;5.448;2023-04-29T00:05:55;11.30;99.90
8979;DHT22;4524;51.364;5.448;2023-04-29T00:08:23;11.30;99.90
8979;DHT22;4524;51.364;5.448;2023-04-29T00:10:51;11.20;99.90
8979;DHT22;4524;51.364;5.448;2023-04-29T00:13:19;11.30;99.90
8979;DHT22;4524;51.364;5.448;2023-04-29T00:15:47;11.20;99.90
8979;DHT22;4524;51.364;5.448;2023-04-29T00:18:17;11.20;99.90
8979;DHT22;4524;51.364;5.448;2023-04-29T00:20:45;11.20;99.90
8979;DHT22;4524;51.364;5.448;2023-04-29T00:23:13;11.10;99.90
8979;DHT22;4524;51.364;5.448;2023-04-29T00:25:41;11.20;99.90
8979;DHT22;4524;51.364;5.448;2023-04-29T00:28:09;11.20;99.90
8979;DHT22;4524;51.364;5.448;2023-04-29T00:30:36;11.20;99.90
8979;DHT22;4524;51.364;5.448;2023-04-29T00:33:04;11.10;99.90
8979;DHT22;4524;51.364;5.448;2023-04-29T00:35:35;11.10;99.90
8979;DHT22;4524;51.364;5.448;2023-04-29T00:38:03;11.00;99.90
8979;DHT22;4524;51.364;5.448;2023-04-29T00:40:31;11.00;99.90
8979;DHT22;4524;51.364;5.448;2023-04-29T00:42:59;11.00;99.90
8979;DHT22;4524;51.364;5.448;2023-04-29T00:45:27;11.00;99.90
8979;DHT22;4524;51.364;5.448;2023-04-29T00:47:55;10.90;99.90
8979;DHT22;4524;51.364;5.448;2023-04-29T00:50:23;10.90;99.90
8979;DHT22;4524;51.364;5.448;2023-04-29T00:52:52;10.90;99.90
8979;DHT22;4524;51.364;5.448;2023-04-29T00:55:21;10.90;99.90
8979;DHT22;4524;51.364;5.448;2023-04-29T00:57:51;10.90;99.90
8979;DHT22;4524;51.364;5.448;2023-04-29T01:00:19;10.80;99.90
8979;DHT22;4524;51.364;5.448;2023-04-29T01:02:48;10.90;99.90
8979;DHT22;4524;51.364;5.448;2023-04-29T01:05:17;10.80;99.90
8979;DHT22;4524;51.364;5.448;2023-04-29T01:07:53;10.80;99.90
8979;DHT22;4524;51.364;5.448;2023-04-29T01:10:26;10.70;99.90
8979;DHT22;4524;51.364;5.448;2023-04-29T01:13:01;10.70;99.90
8979;DHT22;4524;51.364;5.448;2023-04-29T01:15:38;10.70;99.90
8979;DHT22;4524;51.364;5.448;2023-04-29T01:18:17;10.60;99.90
8979;DHT22;4524;51.364;5.448;2023-04-29T01:20:46;10.60;99.90
8979;DHT22;4524;51.364;5.448;2023-04-29T01:23:15;10.70;99.90
8979;DHT22;4524;51.364;5.448;2023-04-29T01:25:44;10.60;99.90
8979;DHT22;4524;51.364;5.448;2023-04-29T01:28:33;10.50;99.90
8979;DHT22;4524;51.364;5.448;2023-04-29T01:31:07;10.50;99.90
8979;DHT22;4524;51.364;5.448;2023-04-29T01:33:40;10.50;99.90
8979;DHT22;4524;51.364;5.448;2023-04-29T01:36:21;10.40;99.90
8979;DHT22;4524;51.364;5.448;2023-04-29T01:38:55;10.40;99.90
8979;DHT22;4524;51.364;5.448;2023-04-29T01:41:34;10.40;99.90
8979;DHT22;4524;51.364;5.448;2023-04-29T01:44:15;10.30;99.90
8979;DHT22;4524;51.364;5.448;2023-04-29T01:46:49;10.20;99.90
8979;DHT22;4524;51.364;5.448;2023-04-29T01:49:19;10.20;99.90
8979;DHT22;4524;51.364;5.448;2023-04-29T01:51:48;10.10;99.90
8979;DHT22;4524;51.364;5.448;2023-04-29T01:54:16;10.20;99.90
8979;DHT22;4524;51.364;5.448;2023-04-29T01:56:46;10.10;99.90
8979;DHT22;4524;51.364;5.448;2023-04-29T01:59:21;10.20;99.90
8979;DHT22;4524;51.364;5.448;2023-04-29T02:02:12;10.20;99.90
8979;DHT22;4524;51.364;5.448;2023-04-29T02:04:50;10.20;99.90
8979;DHT22;4524;51.364;5.448;2023-04-29T02:07:18;10.20;99.90
8979;DHT22;4524;51.364;5.448;2023-04-29T02:09:47;10.20;99.90
8979;DHT22;4524;51.364;5.448;2023-04-29T02:12:16;10.20;99.90
8979;DHT22;4524;51.364;5.448;2023-04-29T02:14:44;10.20;99.90
8979;DHT22;4524;51.364;5.448;2023-04-29T02:17:13;10.10;99.90
8979;DHT22;4524;51.364;5.448;2023-04-29T02:19:42;10.20;99.90
8979;DHT22;4524;51.364;5.448;2023-04-29T02:22:10;10.10;99.90
8979;DHT22;4524;51.364;5.448;2023-04-29T02:24:40;10.10;99.90
8979;DHT22;4524;51.364;5.448;2023-04-29T02:27:08;10.00;99.90
8979;DHT22;4524;51.364;5.448;2023-04-29T02:29:37;10.00;99.90
8979;DHT22;4524;51.364;5.448;2023-04-29T02:32:05;10.10;99.90
8979;DHT22;4524;51.364;5.448;2023-04-29T02:34:36;10.00;99.90
8979;DHT22;4524;51.364;5.448;2023-04-29T02:37:04;10.10;99.90
8979;DHT22;4524;51.364;5.448;2023-04-29T02:39:32;10.10;99.90
8979;DHT22;4524;51.364;5.448;2023-04-29T02:42:00;10.10;99.90
8979;DHT22;4524;51.364;5.448;2023-04-29T02:44:28;10.10;99.90
8979;DHT22;4524;51.364;5.448;2023-04-29T02:47:18;10.10;99.90
8979;DHT22;4524;51.364;5.448;2023-04-29T02:49:46;10.10;99.90
8979;DHT22;4524;51.364;5.448;2023-04-29T02:52:14;10.20;99.90
8979;DHT22;4524;51.364;5.448;2023-04-29T02:54:45;10.20;99.90
8979;DHT22;4524;51.364;5.448;2023-04-29T02:57:13;10.20;99.90
8979;DHT22;4524;51.364;5.448;2023-04-29T02:59:41;10.20;99.90
8979;DHT22;4524;51.364;5.448;2023-04-29T03:02:09;10.20;99.90
8979;DHT22;4524;51.364;5.448;2023-04-29T03:04:40;10.20;99.90
8979;DHT22;4524;51.364;5.448;2023-04-29T03:07:08;10.10;99.90
8979;DHT22;4524;51.364;5.448;2023-04-29T03:09:36;10.10;99.90
8979;DHT22;4524;51.364;5.448;2023-04-29T03:12:04;10.10;99.90
8979;DHT22;4524;51.364;5.448;2023-04-29T03:14:32;10.10;99.90
8979;DHT22;4524;51.364;5.448;2023-04-29T03:17:01;10.10;99.90
8979;DHT22;4524;51.364;5.448;2023-04-29T03:19:30;10.10;99.90
8979;DHT22;4524;51.364;5.448;2023-04-29T03:22:00;10.00;1.00
8979;DHT22;4524;51.364;5.448;2023-04-29T03:24:29;10.10;99.90
8979;DHT22;4524;51.364;5.448;2023-04-29T03:26:57;10.10;99.90
8979;DHT22;4524;51.364;5.448;2023-04-29T03:29:25;10.10;99.90
8979;DHT22;4524;51.364;5.448;2023-04-29T03:31:54;10.00;99.90
8979;DHT22;4524;51.364;5.448;2023-04-29T03:34:22;10.10;99.90
8979;DHT22;4524;51.364;5.448;2023-04-29T03:37:07;10.00;1.00
8979;DHT22;4524;51.364;5.448;2023-04-29T03:39:38;10.00;1.00
8979;DHT22;4524;51.364;5.448;2023-04-29T03:42:06;10.00;1.00
8979;DHT22;4524;51.364;5.448;2023-04-29T03:44:34;9.90;1.00
8979;DHT22;4524;51.364;5.448;2023-04-29T03:47:02;9.90;1.00
8979;DHT22;4524;51.364;5.448;2023-04-29T03:49:30;9.90;1.00
8979;DHT22;4524;51.364;5.448;2023-04-29T03:51:58;9.90;15.20
8979;DHT22;4524;51.364;5.448;2023-04-29T03:54:28;9.90;24.00
8979;DHT22;4524;51.364;5.448;2023-04-29T03:56:56;9.80;73.90
8979;DHT22;4524;51.364;5.448;2023-04-29T03:59:24;9.80;73.00
8979;DHT22;4524;51.364;5.448;2023-04-29T04:01:54;9.80;99.90
8979;DHT22;4524;51.364;5.448;2023-04-29T04:04:22;9.80;96.90
8979;DHT22;4524;51.364;5.448;2023-04-29T04:06:50;9.80;99.90
8979;DHT22;4524;51.364;5.448;2023-04-29T04:09:22;9.80;93.40
8979;DHT22;4524;51.364;5.448;2023-04-29T04:11:52;9.70;35.20
8979;DHT22;4524;51.364;5.448;2023-04-29T04:14:20;9.80;1.00
8979;DHT22;4524;51.364;5.448;2023-04-29T04:16:49;9.80;1.00
8979;DHT22;4524;51.364;5.448;2023-04-29T04:19:17;9.80;1.00
8979;DHT22;4524;51.364;5.448;2023-04-29T04:21:45;9.70;1.00
8979;DHT22;4524;51.364;5.448;2023-04-29T04:24:13;9.80;1.00
8979;DHT22;4524;51.364;5.448;2023-04-29T04:26:41;9.80;1.00
8979;DHT22;4524;51.364;5.448;2023-04-29T04:29:28;9.80;1.00
8979;DHT22;4524;51.364;5.448;2023-04-29T04:31:59;9.80;1.00
8979;DHT22;4524;51.364;5.448;2023-04-29T04:34:28;9.80;1.00
8979;DHT22;4524;51.364;5.448;2023-04-29T04:36:58;9.80;1.00
8979;DHT22;4524;51.364;5.448;2023-04-29T04:39:27;9.70;1.00
8979;DHT22;4524;51.364;5.448;2023-04-29T04:41:56;9.80;1.00
8979;DHT22;4524;51.364;5.448;2023-04-29T04:44:28;9.80;3.40
8979;DHT22;4524;51.364;5.448;2023-04-29T04:47:00;9.80;4.70
8979;DHT22;4524;51.364;5.448;2023-04-29T04:49:47;9.80;1.00
8979;DHT22;4524;51.364;5.448;2023-04-29T04:52:19;9.90;1.00
8979;DHT22;4524;51.364;5.448;2023-04-29T04:54:58;10.00;1.00
8979;DHT22;4524;51.364;5.448;2023-04-29T04:57:29;10.00;1.00
8979;DHT22;4524;51.364;5.448;2023-04-29T05:00:01;10.10;1.00
8979;DHT22;4524;51.364;5.448;2023-04-29T05:02:29;10.10;99.90
8979;DHT22;4524;51.364;5.448;2023-04-29T05:04:57;10.10;1.00
8979;DHT22;4524;51.364;5.448;2023-04-29T05:07:29;10.10;1.00
8979;DHT22;4524;51.364;5.448;2023-04-29T05:10:03;10.10;99.90
8979;DHT22;4524;51.364;5.448;2023-04-29T05:12:35;10.20;99.90
8979;DHT22;4524;51.364;5.448;2023-04-29T05:15:05;10.10;99.90
8979;DHT22;4524;51.364;5.448;2023-04-29T05:17:33;10.10;99.90
8979;DHT22;4524;51.364;5.448;2023-04-29T05:20:02;10.10;99.90
8979;DHT22;4524;51.364;5.448;2023-04-29T05:22:32;10.10;99.90
8979;DHT22;4524;51.364;5.448;2023-04-29T05:25:00;10.10;99.90
8979;DHT22;4524;51.364;5.448;2023-04-29T05:27:32;10.20;99.90
8979;DHT22;4524;51.364;5.448;2023-04-29T05:30:01;10.20;99.90
8979;DHT22;4524;51.364;5.448;2023-04-29T05:32:31;10.20;99.90
8979;DHT22;4524;51.364;5.448;2023-04-29T05:34:59;10.20;99.90
8979;DHT22;4524;51.364;5.448;2023-04-29T05:37:27;10.10;99.90
8979;DHT22;4524;51.364;5.448;2023-04-29T05:40:04;10.10;99.90
8979;DHT22;4524;51.364;5.448;2023-04-29T05:42:33;10.10;99.90
8979;DHT22;4524;51.364;5.448;2023-04-29T05:45:01;10.10;99.90
8979;DHT22;4524;51.364;5.448;2023-04-29T05:47:33;10.20;99.90
8979;DHT22;4524;51.364;5.448;2023-04-29T05:50:01;10.20;99.90
8979;DHT22;4524;51.364;5.448;2023-04-29T05:52:29;10.20;99.90
8979;DHT22;4524;51.364;5.448;2023-04-29T05:54:58;10.20;99.90
8979;DHT22;4524;51.364;5.448;2023-04-29T05:57:26;10.30;99.90
8979;DHT22;4524;51.364;5.448;2023-04-29T05:59:54;10.30;99.90
8979;DHT22;4524;51.364;5.448;2023-04-29T06:02:23;10.30;99.90
8979;DHT22;4524;51.364;5.448;2023-04-29T06:04:52;10.30;99.90
8979;DHT22;4524;51.364;5.448;2023-04-29T06:07:30;10.20;99.90
8979;DHT22;4524;51.364;5.448;2023-04-29T06:10:00;10.20;99.90
8979;DHT22;4524;51.364;5.448;2023-04-29T06:12:29;10.20;99.90
8979;DHT22;4524;51.364;5.448;2023-04-29T06:14:57;10.20;99.90
8979;DHT22;4524;51.364;5.448;2023-04-29T06:17:26;10.20;99.90
8979;DHT22;4524;51.364;5.448;2023-04-29T06:19:56;10.20;99.90
8979;DHT22;4524;51.364;5.448;2023-04-29T06:22:24;10.30;99.90
8979;DHT22;4524;51.364;5.448;2023-04-29T06:24:53;10.20;99.90
8979;DHT22;4524;51.364;5.448;2023-04-29T06:27:34;10.20;99.90
8979;DHT22;4524;51.364;5.448;2023-04-29T06:30:02;10.30;99.90
8979;DHT22;4524;51.364;5.448;2023-04-29T06:32:30;10.30;99.90
8979;DHT22;4524;51.364;5.448;2023-04-29T06:34:59;10.30;99.90
8979;DHT22;4524;51.364;5.448;2023-04-29T06:37:41;10.30;99.90
8979;DHT22;4524;51.364;5.448;2023-04-29T06:40:36;10.30;99.90
8979;DHT22;4524;51.364;5.448;2023-04-29T06:43:29;10.40;99.90
8979;DHT22;4524;51.364;5.448;2023-04-29T06:46:16;10.40;99.90
8979;DHT22;4524;51.364;5.448;2023-04-29T06:49:00;10.30;99.90
8979;DHT22;4524;51.364;5.448;2023-04-29T06:51:32;10.40;99.90
8979;DHT22;4524;51.364;5.448;2023-04-29T06:54:01;10.40;99.90
8979;DHT22;4524;51.364;5.448;2023-04-29T06:56:29;10.40;99.90
8979;DHT22;4524;51.364;5.448;2023-04-29T06:58:57;10.40;99.90
8979;DHT22;4524;51.364;5.448;2023-04-29T07:01:25;10.50;99.90
8979;DHT22;4524;51.364;5.448;2023-04-29T07:03:53;10.50;99.90
8979;DHT22;4524;51.364;5.448;2023-04-29T07:06:21;10.50;99.90
8979;DHT22;4524;51.364;5.448;2023-04-29T07:08:52;10.50;99.90
8979;DHT22;4524;51.364;5.448;2023-04-29T07:11:22;10.40;99.90
8979;DHT22;4524;51.364;5.448;2023-04-29T07:13:52;10.50;99.90
8979;DHT22;4524;51.364;5.448;2023-04-29T07:16:20;10.60;99.90
8979;DHT22;4524;51.364;5.448;2023-04-29T07:18:51;10.50;99.90
8979;DHT22;4524;51.364;5.448;2023-04-29T07:21:19;10.60;99.90
8979;DHT22;4524;51.364;5.448;2023-04-29T07:23:47;10.50;99.90
8979;DHT22;4524;51.364;5.448;2023-04-29T07:26:17;10.70;99.90
8979;DHT22;4524;51.364;5.448;2023-04-29T07:28:45;10.70;99.90
8979;DHT22;4524;51.364;5.448;2023-04-29T07:31:13;10.90;99.90
8979;DHT22;4524;51.364;5.448;2023-04-29T07:33:43;10.90;99.90
8979;DHT22;4524;51.364;5.448;2023-04-29T07:36:12;11.00;99.90
8979;DHT22;4524;51.364;5.448;2023-04-29T07:38:40;11.00;99.90
8979;DHT22;4524;51.364;5.448;2023-04-29T07:41:07;11.00;99.90
8979;DHT22;4524;51.364;5.448;2023-04-29T07:43:37;11.10;99.90
8979;DHT22;4524;51.364;5.448;2023-04-29T07:46:08;11.20;99.90
8979;DHT22;4524;51.364;5.448;2023-04-29T07:48:36;11.20;99.90
8979;DHT22;4524;51.364;5.448;2023-04-29T07:51:05;11.30;99.90
8979;DHT22;4524;51.364;5.448;2023-04-29T07:53:34;11.30;99.90
8979;DHT22;4524;51.364;5.448;2023-04-29T07:56:04;11.20;99.90
8979;DHT22;4524;51.364;5.448;2023-04-29T07:58:33;11.30;99.90
8979;DHT22;4524;51.364;5.448;2023-04-29T08:01:06;11.30;99.90
8979;DHT22;4524;51.364;5.448;2023-04-29T08:03:34;11.40;99.90
8979;DHT22;4524;51.364;5.448;2023-04-29T08:06:06;11.30;63.00
8979;DHT22;4524;51.364;5.448;2023-04-29T08:08:35;11.40;99.90
8979;DHT22;4524;51.364;5.448;2023-04-29T08:11:03;11.50;99.90
8979;DHT22;4524;51.364;5.448;2023-04-29T08:13:32;11.60;99.90
8979;DHT22;4524;51.364;5.448;2023-04-29T08:16:00;11.50;1.00
8979;DHT22;4524;51.364;5.448;2023-04-29T08:18:29;11.60;1.00
8979;DHT22;4524;51.364;5.448;2023-04-29T08:20:57;11.80;9.80
8979;DHT22;4524;51.364;5.448;2023-04-29T08:23:25;11.90;24.40
8979;DHT22;4524;51.364;5.448;2023-04-29T08:25:53;11.80;1.00
8979;DHT22;4524;51.364;5.448;2023-04-29T08:28:21;11.70;1.00
8979;DHT22;4524;51.364;5.448;2023-04-29T08:30:50;11.70;1.00
8979;DHT22;4524;51.364;5.448;2023-04-29T08:33:18;11.80;1.00
8979;DHT22;4524;51.364;5.448;2023-04-29T08:35:47;11.80;1.00
8979;DHT22;4524;51.364;5.448;2023-04-29T08:38:15;11.90;1.00
8979;DHT22;4524;51.364;5.448;2023-04-29T08:40:44;12.00;1.00
8979;DHT22;4524;51.364;5.448;2023-04-29T08:43:13;12.10;1.00
8979;DHT22;4524;51.364;5.448;2023-04-29T08:45:41;12.30;1.00
8979;DHT22;4524;51.364;5.448;2023-04-29T08:48:09;12.30;99.90
8979;DHT22;4524;51.364;5.448;2023-04-29T08:50:39;12.50;1.00
8979;DHT22;4524;51.364;5.448;2023-04-29T08:53:10;12.50;1.00
8979;DHT22;4524;51.364;5.448;2023-04-29T08:55:40;12.50;99.90
8979;DHT22;4524;51.364;5.448;2023-04-29T08:58:10;12.70;99.90
8979;DHT22;4524;51.364;5.448;2023-04-29T09:00:39;12.70;99.90
8979;DHT22;4524;51.364;5.448;2023-04-29T09:03:13;12.70;99.90
8979;DHT22;4524;51.364;5.448;2023-04-29T09:05:48;12.80;99.90
8979;DHT22;4524;51.364;5.448;2023-04-29T09:08:17;13.00;99.90
8979;DHT22;4524;51.364;5.448;2023-04-29T09:10:47;13.10;99.90
8979;DHT22;4524;51.364;5.448;2023-04-29T09:13:23;13.00;99.90
8979;DHT22;4524;51.364;5.448;2023-04-29T09:15:51;13.20;99.90
8979;DHT22;4524;51.364;5.448;2023-04-29T09:18:41;13.20;99.90
8979;DHT22;4524;51.364;5.448;2023-04-29T09:21:13;13.30;99.90
8979;DHT22;4524;51.364;5.448;2023-04-29T09:23:46;13.30;99.90
8979;DHT22;4524;51.364;5.448;2023-04-29T09:26:14;13.20;99.90
8979;DHT22;4524;51.364;5.448;2023-04-29T09:28:42;13.30;99.90
8979;DHT22;4524;51.364;5.448;2023-04-29T09:31:11;13.30;99.90
8979;DHT22;4524;51.364;5.448;2023-04-29T09:33:49;13.40;99.90
8979;DHT22;4524;51.364;5.448;2023-04-29T09:36:36;13.60;99.90
8979;DHT22;4524;51.364;5.448;2023-04-29T09:39:07;13.70;99.90
8979;DHT22;4524;51.364;5.448;2023-04-29T09:41:39;13.60;99.90
8979;DHT22;4524;51.364;5.448;2023-04-29T09:44:08;13.80;99.90
8979;DHT22;4524;51.364;5.448;2023-04-29T09:46:36;13.90;99.90
8979;DHT22;4524;51.364;5.448;2023-04-29T09:49:21;14.00;99.90
8979;DHT22;4524;51.364;5.448;2023-04-29T09:51:55;13.90;99.90
8979;DHT22;4524;51.364;5.448;2023-04-29T09:54:25;14.00;99.90
8979;DHT22;4524;51.364;5.448;2023-04-29T09:56:55;13.90;99.90
8979;DHT22;4524;51.364;5.448;2023-04-29T09:59:23;13.90;99.90
8979;DHT22;4524;51.364;5.448;2023-04-29T10:01:54;14.10;99.90
8979;DHT22;4524;51.364;5.448;2023-04-29T10:04:24;14.20;99.90
8979;DHT22;4524;51.364;5.448;2023-04-29T10:06:54;14.50;99.90
8979;DHT22;4524;51.364;5.448;2023-04-29T10:09:24;14.60;99.90
8979;DHT22;4524;51.364;5.448;2023-04-29T10:11:52;14.00;99.90
8979;DHT22;4524;51.364;5.448;2023-04-29T10:14:22;14.00;99.90
8979;DHT22;4524;51.364;5.448;2023-04-29T10:16:58;14.00;99.90
8979;DHT22;4524;51.364;5.448;2023-04-29T10:19:32;14.40;99.90
8979;DHT22;4524;51.364;5.448;2023-04-29T10:22:07;14.50;99.90
8979;DHT22;4524;51.364;5.448;2023-04-29T10:24:38;14.70;99.90
8979;DHT22;4524;51.364;5.448;2023-04-29T10:27:07;14.80;99.90
8979;DHT22;4524;51.364;5.448;2023-04-29T10:29:39;14.80;99.90
8979;DHT22;4524;51.364;5.448;2023-04-29T10:32:08;14.80;99.90
8979;DHT22;4524;51.364;5.448;2023-04-29T10:34:37;14.70;99.90
8979;DHT22;4524;51.364;5.448;2023-04-29T10:37:07;14.50;99.90
8979;DHT22;4524;51.364;5.448;2023-04-29T10:39:44;14.30;99.90
8979;DHT22;4524;51.364;5.448;2023-04-29T10:42:20;14.10;99.90
8979;DHT22;4524;51.364;5.448;2023-04-29T10:45:18;14.20;99.90
8979;DHT22;4524;51.364;5.448;2023-04-29T10:48:11;14.40;99.90
8979;DHT22;4524;51.364;5.448;2023-04-29T10:50:59;14.50;99.90
8979;DHT22;4524;51.364;5.448;2023-04-29T10:53:28;14.70;99.90
8979;DHT22;4524;51.364;5.448;2023-04-29T10:56:03;15.00;99.90
8979;DHT22;4524;51.364;5.448;2023-04-29T10:58:41;15.20;99.90
8979;DHT22;4524;51.364;5.448;2023-04-29T11:01:11;15.40;99.90
8979;DHT22;4524;51.364;5.448;2023-04-29T11:03:50;15.70;99.90
8979;DHT22;4524;51.364;5.448;2023-04-29T11:06:25;15.80;99.90
8979;DHT22;4524;51.364;5.448;2023-04-29T11:09:08;15.50;99.90
8979;DHT22;4524;51.364;5.448;2023-04-29T11:11:47;15.40;99.90
8979;DHT22;4524;51.364;5.448;2023-04-29T11:14:20;15.40;99.90
8979;DHT22;4524;51.364;5.448;2023-04-29T11:16:51;15.00;99.90
8979;DHT22;4524;51.364;5.448;2023-04-29T11:19:19;14.70;99.90
8979;DHT22;4524;51.364;5.448;2023-04-29T11:21:47;14.50;99.90
8979;DHT22;4524;51.364;5.448;2023-04-29T11:24:15;14.60;99.90
8979;DHT22;4524;51.364;5.448;2023-04-29T11:26:45;14.50;99.90
8979;DHT22;4524;51.364;5.448;2023-04-29T11:29:14;14.50;99.90
8979;DHT22;4524;51.364;5.448;2023-04-29T11:31:44;14.60;99.90
8979;DHT22;4524;51.364;5.448;2023-04-29T11:34:13;14.60;99.90
8979;DHT22;4524;51.364;5.448;2023-04-29T11:36:41;14.60;99.90
8979;DHT22;4524;51.364;5.448;2023-04-29T11:39:08;14.50;99.90
8979;DHT22;4524;51.364;5.448;2023-04-29T11:41:37;14.60;99.90
8979;DHT22;4524;51.364;5.448;2023-04-29T11:44:06;14.60;99.90
8979;DHT22;4524;51.364;5.448;2023-04-29T11:46:35;14.60;99.90
8979;DHT22;4524;51.364;5.448;2023-04-29T11:49:03;14.80;99.90
8979;DHT22;4524;51.364;5.448;2023-04-29T11:51:31;14.70;99.90
8979;DHT22;4524;51.364;5.448;2023-04-29T11:53:59;14.70;99.90
8979;DHT22;4524;51.364;5.448;2023-04-29T11:56:27;14.70;99.90
8979;DHT22;4524;51.364;5.448;2023-04-29T11:58:57;14.70;99.90
8979;DHT22;4524;51.364;5.448;2023-04-29T12:01:28;14.90;99.90
8979;DHT22;4524;51.364;5.448;2023-04-29T12:03:57;15.10;99.90
8979;DHT22;4524;51.364;5.448;2023-04-29T12:06:27;15.20;99.90
8979;DHT22;4524;51.364;5.448;2023-04-29T12:08:58;15.20;99.90
8979;DHT22;4524;51.364;5.448;2023-04-29T12:11:26;15.40;99.90
8979;DHT22;4524;51.364;5.448;2023-04-29T12:13:54;15.20;99.90
8979;DHT22;4524;51.364;5.448;2023-04-29T12:16:23;15.10;99.90
8979;DHT22;4524;51.364;5.448;2023-04-29T12:18:53;15.20;99.90
8979;DHT22;4524;51.364;5.448;2023-04-29T12:21:21;15.20;99.90
8979;DHT22;4524;51.364;5.448;2023-04-29T12:23:50;15.20;99.90
8979;DHT22;4524;51.364;5.448;2023-04-29T12:26:18;15.30;99.90
8979;DHT22;4524;51.364;5.448;2023-04-29T12:28:48;15.30;99.90
8979;DHT22;4524;51.364;5.448;2023-04-29T12:31:20;15.30;99.90
8979;DHT22;4524;51.364;5.448;2023-04-29T12:33:48;15.50;99.90
8979;DHT22;4524;51.364;5.448;2023-04-29T12:36:22;15.70;99.90
8979;DHT22;4524;51.364;5.448;2023-04-29T12:38:51;15.90;99.90
8979;DHT22;4524;51.364;5.448;2023-04-29T12:41:35;15.90;99.90
8979;DHT22;4524;51.364;5.448;2023-04-29T12:44:03;15.90;99.90
8979;DHT22;4524;51.364;5.448;2023-04-29T12:46:35;15.80;99.90
8979;DHT22;4524;51.364;5.448;2023-04-29T12:49:05;15.90;99.90
8979;DHT22;4524;51.364;5.448;2023-04-29T12:51:34;16.10;99.90
8979;DHT22;4524;51.364;5.448;2023-04-29T12:54:03;16.20;99.90
8979;DHT22;4524;51.364;5.448;2023-04-29T12:56:32;16.00;99.90
8979;DHT22;4524;51.364;5.448;2023-04-29T12:59:04;15.80;99.90
8979;DHT22;4524;51.364;5.448;2023-04-29T13:01:33;15.90;99.90
8979;DHT22;4524;51.364;5.448;2023-04-29T13:04:01;16.10;99.90
8979;DHT22;4524;51.364;5.448;2023-04-29T13:06:31;16.10;99.90
8979;DHT22;4524;51.364;5.448;2023-04-29T13:09:00;16.20;99.90
8979;DHT22;4524;51.364;5.448;2023-04-29T13:11:28;16.30;99.90
8979;DHT22;4524;51.364;5.448;2023-04-29T13:14:00;16.50;99.90
8979;DHT22;4524;51.364;5.448;2023-04-29T13:16:28;16.60;99.90
8979;DHT22;4524;51.364;5.448;2023-04-29T13:18:56;16.70;99.90
8979;DHT22;4524;51.364;5.448;2023-04-29T13:21:43;16.90;99.90
8979;DHT22;4524;51.364;5.448;2023-04-29T13:24:13;17.20;99.90
8979;DHT22;4524;51.364;5.448;2023-04-29T13:26:43;17.00;99.90
8979;DHT22;4524;51.364;5.448;2023-04-29T13:29:12;17.00;99.90
8979;DHT22;4524;51.364;5.448;2023-04-29T13:31:40;16.90;99.90
8979;DHT22;4524;51.364;5.448;2023-04-29T13:34:09;16.50;99.90
8979;DHT22;4524;51.364;5.448;2023-04-29T13:36:37;16.50;99.90
8979;DHT22;4524;51.364;5.448;2023-04-29T13:39:05;16.50;99.90
8979;DHT22;4524;51.364;5.448;2023-04-29T13:41:35;16.70;99.90
8979;DHT22;4524;51.364;5.448;2023-04-29T13:44:03;16.70;99.90
8979;DHT22;4524;51.364;5.448;2023-04-29T13:46:47;16.70;99.90
8979;DHT22;4524;51.364;5.448;2023-04-29T13:49:18;16.70;99.90
8979;DHT22;4524;51.364;5.448;2023-04-29T13:52:06;16.70;99.90
8979;DHT22;4524;51.364;5.448;2023-04-29T13:54:37;16.90;99.90
8979;DHT22;4524;51.364;5.448;2023-04-29T13:57:26;17.00;99.90
8979;DHT22;4524;51.364;5.448;2023-04-29T14:00:15;16.70;99.90
8979;DHT22;4524;51.364;5.448;2023-04-29T14:02:46;16.80;99.90
8979;DHT22;4524;51.364;5.448;2023-04-29T14:05:24;16.90;99.90
8979;DHT22;4524;51.364;5.448;2023-04-29T14:07:52;17.00;99.90
8979;DHT22;4524;51.364;5.448;2023-04-29T14:10:20;17.20;99.90
8979;DHT22;4524;51.364;5.448;2023-04-29T14:12:49;17.00;99.90
8979;DHT22;4524;51.364;5.448;2023-04-29T14:15:17;16.90;99.90
8979;DHT22;4524;51.364;5.448;2023-04-29T14:17:45;16.70;99.90
8979;DHT22;4524;51.364;5.448;2023-04-29T14:20:15;16.80;99.90
8979;DHT22;4524;51.364;5.448;2023-04-29T14:22:43;16.70;99.90
8979;DHT22;4524;51.364;5.448;2023-04-29T14:25:11;16.60;99.90
8979;DHT22;4524;51.364;5.448;2023-04-29T14:27:39;16.40;99.90
8979;DHT22;4524;51.364;5.448;2023-04-29T14:30:09;16.40;99.90
8979;DHT22;4524;51.364;5.448;2023-04-29T14:32:38;16.50;99.90
8979;DHT22;4524;51.364;5.448;2023-04-29T14:35:06;16.50;99.90
8979;DHT22;4524;51.364;5.448;2023-04-29T14:37:34;16.50;99.90
8979;DHT22;4524;51.364;5.448;2023-04-29T14:40:03;16.50;99.90
8979;DHT22;4524;51.364;5.448;2023-04-29T14:42:32;16.60;99.90
8979;DHT22;4524;51.364;5.448;2023-04-29T14:44:59;16.60;99.90
8979;DHT22;4524;51.364;5.448;2023-04-29T14:47:29;16.80;99.90
8979;DHT22;4524;51.364;5.448;2023-04-29T14:49:57;16.80;99.90
8979;DHT22;4524;51.364;5.448;2023-04-29T14:52:24;16.90;99.90
8979;DHT22;4524;51.364;5.448;2023-04-29T14:54:52;16.90;99.90
8979;DHT22;4524;51.364;5.448;2023-04-29T14:57:21;16.70;99.90
8979;DHT22;4524;51.364;5.448;2023-04-29T14:59:48;16.50;99.90
8979;DHT22;4524;51.364;5.448;2023-04-29T15:02:16;16.50;99.90
8979;DHT22;4524;51.364;5.448;2023-04-29T15:04:46;16.40;99.90
8979;DHT22;4524;51.364;5.448;2023-04-29T15:07:14;16.40;99.90
8979;DHT22;4524;51.364;5.448;2023-04-29T15:09:42;16.50;99.90
8979;DHT22;4524;51.364;5.448;2023-04-29T15:12:11;16.60;99.90
8979;DHT22;4524;51.364;5.448;2023-04-29T15:14:40;16.40;99.90
8979;DHT22;4524;51.364;5.448;2023-04-29T15:17:07;16.30;99.90
8979;DHT22;4524;51.364;5.448;2023-04-29T15:19:35;16.30;99.90
8979;DHT22;4524;51.364;5.448;2023-04-29T15:22:05;16.30;99.90
8979;DHT22;4524;51.364;5.448;2023-04-29T15:24:33;16.30;99.90
8979;DHT22;4524;51.364;5.448;2023-04-29T15:27:01;16.30;99.90
8979;DHT22;4524;51.364;5.448;2023-04-29T15:29:29;16.30;99.90
8979;DHT22;4524;51.364;5.448;2023-04-29T15:31:58;16.30;99.90
8979;DHT22;4524;51.364;5.448;2023-04-29T15:34:26;16.30;99.90
8979;DHT22;4524;51.364;5.448;2023-04-29T15:36:54;16.40;99.90
8979;DHT22;4524;51.364;5.448;2023-04-29T15:39:24;16.40;99.90
8979;DHT22;4524;51.364;5.448;2023-04-29T15:41:51;16.40;99.90
8979;DHT22;4524;51.364;5.448;2023-04-29T15:44:19;16.50;99.90
8979;DHT22;4524;51.364;5.448;2023-04-29T15:46:47;16.50;99.90
8979;DHT22;4524;51.364;5.448;2023-04-29T15:49:15;16.60;99.90
8979;DHT22;4524;51.364;5.448;2023-04-29T15:51:43;16.50;99.90
8979;DHT22;4524;51.364;5.448;2023-04-29T15:54:11;16.60;99.90
8979;DHT22;4524;51.364;5.448;2023-04-29T15:56:40;16.50;99.90
8979;DHT22;4524;51.364;5.448;2023-04-29T15:59:08;16.50;99.90
8979;DHT22;4524;51.364;5.448;2023-04-29T16:01:36;16.50;99.90
8979;DHT22;4524;51.364;5.448;2023-04-29T16:04:04;16.50;99.90
8979;DHT22;4524;51.364;5.448;2023-04-29T16:06:32;16.50;99.90
8979;DHT22;4524;51.364;5.448;2023-04-29T16:09:00;16.60;99.90
8979;DHT22;4524;51.364;5.448;2023-04-29T16:11:30;16.60;99.90
8979;DHT22;4524;51.364;5.448;2023-04-29T16:13:59;16.70;99.90
8979;DHT22;4524;51.364;5.448;2023-04-29T16:16:27;16.70;99.90
8979;DHT22;4524;51.364;5.448;2023-04-29T16:18:56;16.70;99.90
8979;DHT22;4524;51.364;5.448;2023-04-29T16:21:24;16.60;99.90
8979;DHT22;4524;51.364;5.448;2023-04-29T16:23:53;16.60;99.90
8979;DHT22;4524;51.364;5.448;2023-04-29T16:26:21;16.60;99.90